Aviation Digital Data Service (ADDS)

Output produced by TAFs form (0648 UTC 17 January 2017)
found at http://aviationweather.gov/adds/tafs/
 
KPUB 170526Z 1706/1806 VRB05KT 2SM BR BKN004 OVC012 
     TEMPO 1706/1709 1SM -SN BR OVC003 
     FM170900 VRB05KT 5SM BR BKN015 
     FM171100 VRB05KT 1SM BR OVC010 
     FM171700 13005KT P6SM FEW100 SCT200